sensor_id;sensor_type;location;lat;lon;timestamp;temperature;humidity
9448;DHT22;4762;48.128;11.376;2023-04-10T00:01:15;0.80;99.90
9448;DHT22;4762;48.128;11.376;2023-04-10T00:03:18;0.80;99.90
9448;DHT22;4762;48.128;11.376;2023-04-10T00:05:20;0.80;99.90
9448;DHT22;4762;48.128;11.376;2023-04-10T00:07:22;0.80;99.90
9448;DHT22;4762;48.128;11.376;2023-04-10T00:09:25;0.80;99.90
9448;DHT22;4762;48.128;11.376;2023-04-10T00:11:28;0.70;99.90
9448;DHT22;4762;48.128;11.376;2023-04-10T00:13:30;0.70;99.90
9448;DHT22;4762;48.128;11.376;2023-04-10T00:15:32;0.70;99.90
9448;DHT22;4762;48.128;11.376;2023-04-10T00:17:35;0.70;99.90
9448;DHT22;4762;48.128;11.376;2023-04-10T00:19:37;0.60;99.90
9448;DHT22;4762;48.128;11.376;2023-04-10T00:21:39;0.60;99.90
9448;DHT22;4762;48.128;11.376;2023-04-10T00:23:42;0.60;99.90
9448;DHT22;4762;48.128;11.376;2023-04-10T00:25:45;0.60;99.90
9448;DHT22;4762;48.128;11.376;2023-04-10T00:27:46;0.60;99.90
9448;DHT22;4762;48.128;11.376;2023-04-10T00:29:49;0.60;99.90
9448;DHT22;4762;48.128;11.376;2023-04-10T00:31:52;0.50;99.90
9448;DHT22;4762;48.128;11.376;2023-04-10T00:33:54;0.50;99.90
9448;DHT22;4762;48.128;11.376;2023-04-10T00:40:39;0.40;99.90
9448;DHT22;4762;48.128;11.376;2023-04-10T00:42:41;0.40;99.90
9448;DHT22;4762;48.128;11.376;2023-04-10T00:44:44;0.40;99.90
9448;DHT22;4762;48.128;11.376;2023-04-10T00:46:46;0.40;99.90
9448;DHT22;4762;48.128;11.376;2023-04-10T00:48:49;0.30;99.90
9448;DHT22;4762;48.128;11.376;2023-04-10T00:50:51;0.30;99.90
9448;DHT22;4762;48.128;11.376;2023-04-10T00:52:53;0.30;99.90
9448;DHT22;4762;48.128;11.376;2023-04-10T00:54:56;0.30;99.90
9448;DHT22;4762;48.128;11.376;2023-04-10T00:56:58;0.30;99.90
9448;DHT22;4762;48.128;11.376;2023-04-10T00:59:02;0.30;99.90
9448;DHT22;4762;48.128;11.376;2023-04-10T01:01:04;0.20;99.90
9448;DHT22;4762;48.128;11.376;2023-04-10T01:03:06;0.20;99.90
9448;DHT22;4762;48.128;11.376;2023-04-10T01:05:09;0.30;99.90
9448;DHT22;4762;48.128;11.376;2023-04-10T01:07:27;0.30;99.90
9448;DHT22;4762;48.128;11.376;2023-04-10T01:09:40;0.30;99.90
9448;DHT22;4762;48.128;11.376;2023-04-10T01:11:53;0.20;99.90
9448;DHT22;4762;48.128;11.376;2023-04-10T01:14:18;0.20;99.90
9448;DHT22;4762;48.128;11.376;2023-04-10T01:16:25;0.20;99.90
9448;DHT22;4762;48.128;11.376;2023-04-10T01:18:37;0.20;99.90
9448;DHT22;4762;48.128;11.376;2023-04-10T01:20:41;0.30;99.90
9448;DHT22;4762;48.128;11.376;2023-04-10T01:22:53;0.20;99.90
9448;DHT22;4762;48.128;11.376;2023-04-10T01:25:22;0.20;99.90
9448;DHT22;4762;48.128;11.376;2023-04-10T01:27:47;0.20;99.90
9448;DHT22;4762;48.128;11.376;2023-04-10T01:29:48;0.20;99.90
9448;DHT22;4762;48.128;11.376;2023-04-10T01:31:51;0.20;99.90
9448;DHT22;4762;48.128;11.376;2023-04-10T01:33:53;0.10;99.90
9448;DHT22;4762;48.128;11.376;2023-04-10T01:35:54;0.10;99.90
9448;DHT22;4762;48.128;11.376;2023-04-10T01:37:56;0.10;99.90
9448;DHT22;4762;48.128;11.376;2023-04-10T01:40:02;0.00;99.90
9448;DHT22;4762;48.128;11.376;2023-04-10T01:42:04;0.00;99.90
9448;DHT22;4762;48.128;11.376;2023-04-10T01:44:06;0.00;99.90
9448;DHT22;4762;48.128;11.376;2023-04-10T01:46:09;0.00;99.90
9448;DHT22;4762;48.128;11.376;2023-04-10T01:48:11;-0.10;99.90
9448;DHT22;4762;48.128;11.376;2023-04-10T01:50:14;-0.10;99.90
9448;DHT22;4762;48.128;11.376;2023-04-10T01:52:16;-0.10;99.90
9448;DHT22;4762;48.128;11.376;2023-04-10T01:54:19;-0.20;99.90
9448;DHT22;4762;48.128;11.376;2023-04-10T01:56:21;-0.20;99.90
9448;DHT22;4762;48.128;11.376;2023-04-10T01:58:24;-0.30;99.90
9448;DHT22;4762;48.128;11.376;2023-04-10T02:00:27;-0.40;99.90
9448;DHT22;4762;48.128;11.376;2023-04-10T02:02:31;-0.40;99.90
9448;DHT22;4762;48.128;11.376;2023-04-10T02:04:33;-0.40;99.90
9448;DHT22;4762;48.128;11.376;2023-04-10T02:06:44;-0.40;99.90
9448;DHT22;4762;48.128;11.376;2023-04-10T02:08:47;-0.40;99.90
9448;DHT22;4762;48.128;11.376;2023-04-10T02:10:51;-0.40;99.90
9448;DHT22;4762;48.128;11.376;2023-04-10T02:12:54;-0.40;99.90
9448;DHT22;4762;48.128;11.376;2023-04-10T02:14:56;-0.40;99.90
9448;DHT22;4762;48.128;11.376;2023-04-10T02:16:58;-0.40;99.90
9448;DHT22;4762;48.128;11.376;2023-04-10T02:19:01;-0.40;99.90
9448;DHT22;4762;48.128;11.376;2023-04-10T02:21:03;-0.40;99.90
9448;DHT22;4762;48.128;11.376;2023-04-10T02:23:06;-0.50;99.90
9448;DHT22;4762;48.128;11.376;2023-04-10T02:25:08;-0.50;99.90
9448;DHT22;4762;48.128;11.376;2023-04-10T02:27:12;-0.50;99.90
9448;DHT22;4762;48.128;11.376;2023-04-10T02:29:14;-0.50;99.90
9448;DHT22;4762;48.128;11.376;2023-04-10T02:31:17;-0.50;99.90
9448;DHT22;4762;48.128;11.376;2023-04-10T02:33:19;-0.50;99.90
9448;DHT22;4762;48.128;11.376;2023-04-10T02:35:21;-0.50;99.90
9448;DHT22;4762;48.128;11.376;2023-04-10T02:37:24;-0.60;99.90
9448;DHT22;4762;48.128;11.376;2023-04-10T02:39:27;-0.60;99.90
9448;DHT22;4762;48.128;11.376;2023-04-10T02:41:30;-0.60;99.90
9448;DHT22;4762;48.128;11.376;2023-04-10T02:43:32;-0.70;99.90
9448;DHT22;4762;48.128;11.376;2023-04-10T02:45:35;-0.70;99.90
9448;DHT22;4762;48.128;11.376;2023-04-10T02:47:37;-0.70;99.90
9448;DHT22;4762;48.128;11.376;2023-04-10T02:49:40;-0.70;99.90
9448;DHT22;4762;48.128;11.376;2023-04-10T02:51:42;-0.70;99.90
9448;DHT22;4762;48.128;11.376;2023-04-10T02:53:46;-0.70;99.90
9448;DHT22;4762;48.128;11.376;2023-04-10T02:55:48;-0.80;99.90
9448;DHT22;4762;48.128;11.376;2023-04-10T02:57:50;-0.90;99.90
9448;DHT22;4762;48.128;11.376;2023-04-10T02:59:53;-0.90;99.90
9448;DHT22;4762;48.128;11.376;2023-04-10T03:01:55;-0.90;99.90
9448;DHT22;4762;48.128;11.376;2023-04-10T03:03:57;-0.90;99.90
9448;DHT22;4762;48.128;11.376;2023-04-10T03:05:59;-0.90;99.90
9448;DHT22;4762;48.128;11.376;2023-04-10T03:08:02;-0.90;99.90
9448;DHT22;4762;48.128;11.376;2023-04-10T03:10:05;-1.00;99.90
9448;DHT22;4762;48.128;11.376;2023-04-10T03:12:07;-1.10;99.90
9448;DHT22;4762;48.128;11.376;2023-04-10T03:14:10;-1.10;99.90
9448;DHT22;4762;48.128;11.376;2023-04-10T03:16:13;-1.10;99.90
9448;DHT22;4762;48.128;11.376;2023-04-10T03:18:16;-1.20;99.90
9448;DHT22;4762;48.128;11.376;2023-04-10T03:20:19;-1.20;99.90
9448;DHT22;4762;48.128;11.376;2023-04-10T03:22:21;-1.30;99.90
9448;DHT22;4762;48.128;11.376;2023-04-10T03:24:23;-1.30;99.90
9448;DHT22;4762;48.128;11.376;2023-04-10T03:26:25;-1.30;99.90
9448;DHT22;4762;48.128;11.376;2023-04-10T03:28:28;-1.30;99.90
9448;DHT22;4762;48.128;11.376;2023-04-10T03:30:31;-1.40;99.90
9448;DHT22;4762;48.128;11.376;2023-04-10T03:32:34;-1.40;99.90
9448;DHT22;4762;48.128;11.376;2023-04-10T03:34:36;-1.40;99.90
9448;DHT22;4762;48.128;11.376;2023-04-10T03:36:39;-1.40;99.90
9448;DHT22;4762;48.128;11.376;2023-04-10T03:38:42;-1.40;99.90
9448;DHT22;4762;48.128;11.376;2023-04-10T03:40:45;-1.40;99.90
9448;DHT22;4762;48.128;11.376;2023-04-10T03:42:47;-1.40;99.90
9448;DHT22;4762;48.128;11.376;2023-04-10T03:44:49;-1.40;99.90
9448;DHT22;4762;48.128;11.376;2023-04-10T03:46:52;-1.40;99.90
9448;DHT22;4762;48.128;11.376;2023-04-10T03:48:54;-1.40;99.90
9448;DHT22;4762;48.128;11.376;2023-04-10T03:50:56;-1.40;99.90
9448;DHT22;4762;48.128;11.376;2023-04-10T03:52:59;-1.50;99.90
9448;DHT22;4762;48.128;11.376;2023-04-10T03:55:01;-1.40;99.90
9448;DHT22;4762;48.128;11.376;2023-04-10T03:57:03;-1.40;99.90
9448;DHT22;4762;48.128;11.376;2023-04-10T03:59:06;-1.40;99.90
9448;DHT22;4762;48.128;11.376;2023-04-10T04:01:08;-1.30;99.90
9448;DHT22;4762;48.128;11.376;2023-04-10T04:03:10;-1.30;99.90
9448;DHT22;4762;48.128;11.376;2023-04-10T04:05:12;-1.30;99.90
9448;DHT22;4762;48.128;11.376;2023-04-10T04:07:15;-1.20;99.90
9448;DHT22;4762;48.128;11.376;2023-04-10T04:09:17;-1.30;99.90
9448;DHT22;4762;48.128;11.376;2023-04-10T04:11:19;-1.30;99.90
9448;DHT22;4762;48.128;11.376;2023-04-10T04:13:22;-1.40;99.90
9448;DHT22;4762;48.128;11.376;2023-04-10T04:15:24;-1.40;99.90
9448;DHT22;4762;48.128;11.376;2023-04-10T04:17:27;-1.50;99.90
9448;DHT22;4762;48.128;11.376;2023-04-10T04:19:29;-1.50;99.90
9448;DHT22;4762;48.128;11.376;2023-04-10T04:21:31;-1.50;99.90
9448;DHT22;4762;48.128;11.376;2023-04-10T04:23:34;-1.50;99.90
9448;DHT22;4762;48.128;11.376;2023-04-10T04:25:36;-1.50;99.90
9448;DHT22;4762;48.128;11.376;2023-04-10T04:27:39;-1.60;99.90
9448;DHT22;4762;48.128;11.376;2023-04-10T04:29:41;-1.60;99.90
9448;DHT22;4762;48.128;11.376;2023-04-10T04:31:43;-1.60;99.90
9448;DHT22;4762;48.128;11.376;2023-04-10T04:33:46;-1.60;99.90
9448;DHT22;4762;48.128;11.376;2023-04-10T04:35:48;-1.60;99.90
9448;DHT22;4762;48.128;11.376;2023-04-10T04:37:51;-1.60;99.90
9448;DHT22;4762;48.128;11.376;2023-04-10T04:39:53;-1.60;99.90
9448;DHT22;4762;48.128;11.376;2023-04-10T04:41:55;-1.70;99.90
9448;DHT22;4762;48.128;11.376;2023-04-10T04:43:58;-1.70;99.90
9448;DHT22;4762;48.128;11.376;2023-04-10T04:46:00;-1.60;99.90
9448;DHT22;4762;48.128;11.376;2023-04-10T04:48:02;-1.60;99.90
9448;DHT22;4762;48.128;11.376;2023-04-10T04:50:05;-1.60;99.90
9448;DHT22;4762;48.128;11.376;2023-04-10T04:52:08;-1.60;99.90
9448;DHT22;4762;48.128;11.376;2023-04-10T04:54:10;-1.60;99.90
9448;DHT22;4762;48.128;11.376;2023-04-10T04:56:12;-1.50;99.90
9448;DHT22;4762;48.128;11.376;2023-04-10T04:58:16;-1.50;99.90
9448;DHT22;4762;48.128;11.376;2023-04-10T05:00:18;-1.50;99.90
9448;DHT22;4762;48.128;11.376;2023-04-10T05:02:22;-1.50;99.90
9448;DHT22;4762;48.128;11.376;2023-04-10T05:04:24;-1.40;99.90
9448;DHT22;4762;48.128;11.376;2023-04-10T05:06:27;-1.40;99.90
9448;DHT22;4762;48.128;11.376;2023-04-10T05:08:29;-1.40;99.90
9448;DHT22;4762;48.128;11.376;2023-04-10T05:10:31;-1.30;99.90
9448;DHT22;4762;48.128;11.376;2023-04-10T05:12:33;-1.20;99.90
9448;DHT22;4762;48.128;11.376;2023-04-10T05:14:36;-1.10;99.90
9448;DHT22;4762;48.128;11.376;2023-04-10T05:16:39;-0.70;99.90
9448;DHT22;4762;48.128;11.376;2023-04-10T05:18:41;-0.60;99.90
9448;DHT22;4762;48.128;11.376;2023-04-10T05:20:45;-0.60;99.90
9448;DHT22;4762;48.128;11.376;2023-04-10T05:22:46;-0.60;99.90
9448;DHT22;4762;48.128;11.376;2023-04-10T05:24:48;-0.60;99.90
9448;DHT22;4762;48.128;11.376;2023-04-10T05:26:50;-0.60;99.90
9448;DHT22;4762;48.128;11.376;2023-04-10T05:28:52;-0.60;99.90
9448;DHT22;4762;48.128;11.376;2023-04-10T05:30:54;-0.60;99.90
9448;DHT22;4762;48.128;11.376;2023-04-10T05:32:57;-0.60;99.90
9448;DHT22;4762;48.128;11.376;2023-04-10T05:34:59;-0.60;99.90
9448;DHT22;4762;48.128;11.376;2023-04-10T05:37:01;-0.50;99.90
9448;DHT22;4762;48.128;11.376;2023-04-10T05:39:04;-0.40;99.90
9448;DHT22;4762;48.128;11.376;2023-04-10T05:41:06;-0.20;99.90
9448;DHT22;4762;48.128;11.376;2023-04-10T05:43:08;-0.10;99.90
9448;DHT22;4762;48.128;11.376;2023-04-10T05:45:10;0.50;99.90
9448;DHT22;4762;48.128;11.376;2023-04-10T05:47:12;0.70;99.90
9448;DHT22;4762;48.128;11.376;2023-04-10T05:49:15;1.30;99.90
9448;DHT22;4762;48.128;11.376;2023-04-10T05:51:17;2.40;99.90
9448;DHT22;4762;48.128;11.376;2023-04-10T05:53:20;3.40;99.90
9448;DHT22;4762;48.128;11.376;2023-04-10T05:55:22;4.00;99.90
9448;DHT22;4762;48.128;11.376;2023-04-10T05:57:24;5.00;99.90
9448;DHT22;4762;48.128;11.376;2023-04-10T05:59:27;5.20;99.90
9448;DHT22;4762;48.128;11.376;2023-04-10T06:01:29;4.60;99.90
9448;DHT22;4762;48.128;11.376;2023-04-10T06:03:31;5.50;99.90
9448;DHT22;4762;48.128;11.376;2023-04-10T06:05:33;6.20;98.30
9448;DHT22;4762;48.128;11.376;2023-04-10T06:07:36;7.80;95.20
9448;DHT22;4762;48.128;11.376;2023-04-10T06:09:39;8.50;86.20
9448;DHT22;4762;48.128;11.376;2023-04-10T06:11:41;10.00;74.60
9448;DHT22;4762;48.128;11.376;2023-04-10T06:13:43;8.80;70.50
9448;DHT22;4762;48.128;11.376;2023-04-10T06:15:45;8.20;75.20
9448;DHT22;4762;48.128;11.376;2023-04-10T06:17:47;8.10;78.90
9448;DHT22;4762;48.128;11.376;2023-04-10T06:19:50;7.00;80.00
9448;DHT22;4762;48.128;11.376;2023-04-10T06:21:52;7.00;86.80
9448;DHT22;4762;48.128;11.376;2023-04-10T06:23:54;7.90;90.10
9448;DHT22;4762;48.128;11.376;2023-04-10T06:25:57;8.90;83.00
9448;DHT22;4762;48.128;11.376;2023-04-10T06:28:00;9.40;79.90
9448;DHT22;4762;48.128;11.376;2023-04-10T06:30:02;10.40;74.30
9448;DHT22;4762;48.128;11.376;2023-04-10T06:32:04;10.90;72.90
9448;DHT22;4762;48.128;11.376;2023-04-10T06:34:07;12.70;70.00
9448;DHT22;4762;48.128;11.376;2023-04-10T06:36:09;12.20;66.60
9448;DHT22;4762;48.128;11.376;2023-04-10T06:38:13;13.00;65.00
9448;DHT22;4762;48.128;11.376;2023-04-10T06:40:15;14.20;63.80
9448;DHT22;4762;48.128;11.376;2023-04-10T06:42:18;14.90;60.60
9448;DHT22;4762;48.128;11.376;2023-04-10T06:44:20;14.70;61.00
9448;DHT22;4762;48.128;11.376;2023-04-10T06:46:22;13.60;58.00
9448;DHT22;4762;48.128;11.376;2023-04-10T06:48:24;13.60;61.20
9448;DHT22;4762;48.128;11.376;2023-04-10T06:50:26;13.30;60.80
9448;DHT22;4762;48.128;11.376;2023-04-10T06:52:29;12.60;62.30
9448;DHT22;4762;48.128;11.376;2023-04-10T06:54:31;12.40;60.20
9448;DHT22;4762;48.128;11.376;2023-04-10T06:56:33;12.00;62.00
9448;DHT22;4762;48.128;11.376;2023-04-10T06:58:35;11.70;60.90
9448;DHT22;4762;48.128;11.376;2023-04-10T07:00:37;10.20;59.30
9448;DHT22;4762;48.128;11.376;2023-04-10T07:02:40;10.50;62.00
9448;DHT22;4762;48.128;11.376;2023-04-10T07:04:42;10.40;62.60
9448;DHT22;4762;48.128;11.376;2023-04-10T07:06:44;10.90;64.20
9448;DHT22;4762;48.128;11.376;2023-04-10T07:08:48;10.90;61.20
9448;DHT22;4762;48.128;11.376;2023-04-10T07:10:51;10.30;62.40
9448;DHT22;4762;48.128;11.376;2023-04-10T07:12:53;10.50;61.20
9448;DHT22;4762;48.128;11.376;2023-04-10T07:14:55;10.20;61.70
9448;DHT22;4762;48.128;11.376;2023-04-10T07:16:57;10.20;60.40
9448;DHT22;4762;48.128;11.376;2023-04-10T07:18:59;11.00;60.70
9448;DHT22;4762;48.128;11.376;2023-04-10T07:21:08;11.10;58.10
9448;DHT22;4762;48.128;11.376;2023-04-10T07:23:05;11.60;58.40
9448;DHT22;4762;48.128;11.376;2023-04-10T07:25:07;11.20;57.80
9448;DHT22;4762;48.128;11.376;2023-04-10T07:27:10;10.40;56.70
9448;DHT22;4762;48.128;11.376;2023-04-10T07:29:12;10.00;59.20
9448;DHT22;4762;48.128;11.376;2023-04-10T07:31:14;10.00;59.50
9448;DHT22;4762;48.128;11.376;2023-04-10T07:33:16;10.00;58.70
9448;DHT22;4762;48.128;11.376;2023-04-10T07:35:18;10.00;59.00
9448;DHT22;4762;48.128;11.376;2023-04-10T07:37:21;10.80;59.20
9448;DHT22;4762;48.128;11.376;2023-04-10T07:39:23;11.10;55.10
9448;DHT22;4762;48.128;11.376;2023-04-10T07:41:25;11.50;55.50
9448;DHT22;4762;48.128;11.376;2023-04-10T07:43:27;11.80;55.60
9448;DHT22;4762;48.128;11.376;2023-04-10T07:45:30;11.90;53.50
9448;DHT22;4762;48.128;11.376;2023-04-10T07:47:32;11.20;54.00
9448;DHT22;4762;48.128;11.376;2023-04-10T07:49:35;11.10;55.60
9448;DHT22;4762;48.128;11.376;2023-04-10T07:51:37;11.30;52.90
9448;DHT22;4762;48.128;11.376;2023-04-10T07:53:40;11.10;52.70
9448;DHT22;4762;48.128;11.376;2023-04-10T07:55:43;11.00;52.90
9448;DHT22;4762;48.128;11.376;2023-04-10T07:57:45;10.80;52.60
9448;DHT22;4762;48.128;11.376;2023-04-10T07:59:48;10.50;53.50
9448;DHT22;4762;48.128;11.376;2023-04-10T08:01:50;11.00;55.10
9448;DHT22;4762;48.128;11.376;2023-04-10T08:03:52;10.90;53.90
9448;DHT22;4762;48.128;11.376;2023-04-10T08:05:54;11.40;54.10
9448;DHT22;4762;48.128;11.376;2023-04-10T08:07:57;11.00;52.90
9448;DHT22;4762;48.128;11.376;2023-04-10T08:10:01;11.40;54.20
9448;DHT22;4762;48.128;11.376;2023-04-10T08:14:20;12.80;52.90
9448;DHT22;4762;48.128;11.376;2023-04-10T08:16:23;12.30;49.00
9448;DHT22;4762;48.128;11.376;2023-04-10T08:18:25;12.80;49.80
9448;DHT22;4762;48.128;11.376;2023-04-10T08:20:27;12.90;49.90
9448;DHT22;4762;48.128;11.376;2023-04-10T08:22:29;12.70;49.30
9448;DHT22;4762;48.128;11.376;2023-04-10T08:24:31;13.40;49.80
9448;DHT22;4762;48.128;11.376;2023-04-10T08:26:34;13.60;48.40
9448;DHT22;4762;48.128;11.376;2023-04-10T08:28:36;13.20;46.90
9448;DHT22;4762;48.128;11.376;2023-04-10T08:30:38;12.90;48.50
9448;DHT22;4762;48.128;11.376;2023-04-10T08:32:40;13.50;48.20
9448;DHT22;4762;48.128;11.376;2023-04-10T08:34:42;13.60;47.60
9448;DHT22;4762;48.128;11.376;2023-04-10T08:36:45;13.80;47.70
9448;DHT22;4762;48.128;11.376;2023-04-10T08:38:47;13.20;48.10
9448;DHT22;4762;48.128;11.376;2023-04-10T08:40:50;13.40;48.40
9448;DHT22;4762;48.128;11.376;2023-04-10T08:42:53;13.80;47.20
9448;DHT22;4762;48.128;11.376;2023-04-10T08:44:56;13.90;45.00
9448;DHT22;4762;48.128;11.376;2023-04-10T08:46:59;14.10;45.10
9448;DHT22;4762;48.128;11.376;2023-04-10T08:49:02;13.00;43.90
9448;DHT22;4762;48.128;11.376;2023-04-10T08:51:03;12.70;45.50
9448;DHT22;4762;48.128;11.376;2023-04-10T08:53:07;12.90;46.20
9448;DHT22;4762;48.128;11.376;2023-04-10T08:55:09;13.00;43.90
9448;DHT22;4762;48.128;11.376;2023-04-10T08:57:14;12.40;44.80
9448;DHT22;4762;48.128;11.376;2023-04-10T08:59:14;12.60;45.90
9448;DHT22;4762;48.128;11.376;2023-04-10T09:01:17;13.30;45.30
9448;DHT22;4762;48.128;11.376;2023-04-10T09:03:19;13.10;45.90
9448;DHT22;4762;48.128;11.376;2023-04-10T09:05:21;13.60;46.30
9448;DHT22;4762;48.128;11.376;2023-04-10T09:07:23;14.20;44.80
9448;DHT22;4762;48.128;11.376;2023-04-10T09:09:26;14.30;44.90
9448;DHT22;4762;48.128;11.376;2023-04-10T09:12:10;14.30;42.30
9448;DHT22;4762;48.128;11.376;2023-04-10T09:13:56;13.90;41.20
9448;DHT22;4762;48.128;11.376;2023-04-10T09:16:02;13.00;44.00
9448;DHT22;4762;48.128;11.376;2023-04-10T09:18:08;14.40;43.90
9448;DHT22;4762;48.128;11.376;2023-04-10T09:20:19;14.90;43.00
9448;DHT22;4762;48.128;11.376;2023-04-10T09:22:12;15.50;42.10
9448;DHT22;4762;48.128;11.376;2023-04-10T09:24:14;15.70;42.70
9448;DHT22;4762;48.128;11.376;2023-04-10T09:26:22;15.60;41.20
9448;DHT22;4762;48.128;11.376;2023-04-10T09:28:25;15.50;41.10
9448;DHT22;4762;48.128;11.376;2023-04-10T09:30:34;14.90;41.10
9448;DHT22;4762;48.128;11.376;2023-04-10T09:32:38;14.50;41.70
9448;DHT22;4762;48.128;11.376;2023-04-10T09:34:51;15.10;41.30
9448;DHT22;4762;48.128;11.376;2023-04-10T09:36:53;14.80;42.90
9448;DHT22;4762;48.128;11.376;2023-04-10T09:38:55;15.20;43.00
9448;DHT22;4762;48.128;11.376;2023-04-10T09:41:06;15.30;41.60
9448;DHT22;4762;48.128;11.376;2023-04-10T09:43:19;14.70;40.40
9448;DHT22;4762;48.128;11.376;2023-04-10T09:45:21;14.90;41.10
9448;DHT22;4762;48.128;11.376;2023-04-10T09:47:23;15.60;42.90
9448;DHT22;4762;48.128;11.376;2023-04-10T09:49:26;15.40;41.60
9448;DHT22;4762;48.128;11.376;2023-04-10T09:51:30;16.40;39.30
9448;DHT22;4762;48.128;11.376;2023-04-10T09:53:31;16.40;37.50
9448;DHT22;4762;48.128;11.376;2023-04-10T09:55:33;16.80;38.50
9448;DHT22;4762;48.128;11.376;2023-04-10T09:57:35;17.30;37.50
9448;DHT22;4762;48.128;11.376;2023-04-10T09:59:38;16.30;36.90
9448;DHT22;4762;48.128;11.376;2023-04-10T10:01:40;16.20;37.90
9448;DHT22;4762;48.128;11.376;2023-04-10T10:03:42;16.20;39.40
9448;DHT22;4762;48.128;11.376;2023-04-10T10:05:46;16.60;36.80
9448;DHT22;4762;48.128;11.376;2023-04-10T10:07:47;17.20;36.70
9448;DHT22;4762;48.128;11.376;2023-04-10T10:09:49;17.40;35.80
9448;DHT22;4762;48.128;11.376;2023-04-10T10:11:51;16.90;34.80
9448;DHT22;4762;48.128;11.376;2023-04-10T10:13:53;16.00;35.80
9448;DHT22;4762;48.128;11.376;2023-04-10T10:18:30;16.90;35.40
9448;DHT22;4762;48.128;11.376;2023-04-10T10:20:29;17.40;36.00
9448;DHT22;4762;48.128;11.376;2023-04-10T10:22:31;18.00;35.80
9448;DHT22;4762;48.128;11.376;2023-04-10T10:24:33;17.90;34.20
9448;DHT22;4762;48.128;11.376;2023-04-10T10:26:36;17.80;35.10
9448;DHT22;4762;48.128;11.376;2023-04-10T10:28:39;18.10;34.40
9448;DHT22;4762;48.128;11.376;2023-04-10T10:30:41;16.90;34.80
9448;DHT22;4762;48.128;11.376;2023-04-10T10:32:44;17.40;36.30
9448;DHT22;4762;48.128;11.376;2023-04-10T10:34:45;17.00;33.20
9448;DHT22;4762;48.128;11.376;2023-04-10T10:36:47;16.90;35.10
9448;DHT22;4762;48.128;11.376;2023-04-10T10:38:52;17.50;34.90
9448;DHT22;4762;48.128;11.376;2023-04-10T10:40:58;17.60;33.00
9448;DHT22;4762;48.128;11.376;2023-04-10T10:43:25;17.00;33.20
9448;DHT22;4762;48.128;11.376;2023-04-10T10:45:32;16.80;34.90
9448;DHT22;4762;48.128;11.376;2023-04-10T10:47:32;16.60;35.50
9448;DHT22;4762;48.128;11.376;2023-04-10T10:51:50;17.00;33.70
9448;DHT22;4762;48.128;11.376;2023-04-10T10:53:52;18.00;33.90
9448;DHT22;4762;48.128;11.376;2023-04-10T10:55:54;17.00;33.30
9448;DHT22;4762;48.128;11.376;2023-04-10T10:57:57;17.50;33.10
9448;DHT22;4762;48.128;11.376;2023-04-10T10:59:59;16.60;32.30
9448;DHT22;4762;48.128;11.376;2023-04-10T11:02:16;15.20;33.80
9448;DHT22;4762;48.128;11.376;2023-04-10T11:06:50;17.30;34.10
9448;DHT22;4762;48.128;11.376;2023-04-10T11:08:51;17.30;33.60
9448;DHT22;4762;48.128;11.376;2023-04-10T11:11:03;18.10;32.10
9448;DHT22;4762;48.128;11.376;2023-04-10T11:13:14;17.60;32.80
9448;DHT22;4762;48.128;11.376;2023-04-10T11:15:20;18.10;33.50
9448;DHT22;4762;48.128;11.376;2023-04-10T11:22:00;17.40;32.50
9448;DHT22;4762;48.128;11.376;2023-04-10T11:24:02;17.70;32.00
9448;DHT22;4762;48.128;11.376;2023-04-10T11:26:03;16.20;31.50
9448;DHT22;4762;48.128;11.376;2023-04-10T11:28:06;16.70;31.10
9448;DHT22;4762;48.128;11.376;2023-04-10T11:32:23;16.20;30.90
9448;DHT22;4762;48.128;11.376;2023-04-10T11:34:25;17.20;31.80
9448;DHT22;4762;48.128;11.376;2023-04-10T11:36:32;17.20;30.30
9448;DHT22;4762;48.128;11.376;2023-04-10T11:38:34;16.80;29.40
9448;DHT22;4762;48.128;11.376;2023-04-10T11:40:51;17.00;28.80
9448;DHT22;4762;48.128;11.376;2023-04-10T11:42:38;17.00;30.60
9448;DHT22;4762;48.128;11.376;2023-04-10T11:44:42;17.90;29.50
9448;DHT22;4762;48.128;11.376;2023-04-10T11:46:53;17.80;30.10
9448;DHT22;4762;48.128;11.376;2023-04-10T11:48:58;18.70;29.00
9448;DHT22;4762;48.128;11.376;2023-04-10T11:51:05;18.40;30.10
9448;DHT22;4762;48.128;11.376;2023-04-10T11:53:17;19.40;29.70
9448;DHT22;4762;48.128;11.376;2023-04-10T11:55:19;17.90;28.00
9448;DHT22;4762;48.128;11.376;2023-04-10T11:57:21;18.20;29.40
9448;DHT22;4762;48.128;11.376;2023-04-10T11:59:24;18.70;29.30
9448;DHT22;4762;48.128;11.376;2023-04-10T12:01:26;17.90;28.20
9448;DHT22;4762;48.128;11.376;2023-04-10T12:03:35;17.80;29.80
9448;DHT22;4762;48.128;11.376;2023-04-10T12:05:47;18.50;29.10
9448;DHT22;4762;48.128;11.376;2023-04-10T12:07:49;18.60;28.90
9448;DHT22;4762;48.128;11.376;2023-04-10T12:09:56;18.70;29.10
9448;DHT22;4762;48.128;11.376;2023-04-10T12:11:59;19.00;28.60
9448;DHT22;4762;48.128;11.376;2023-04-10T12:14:03;18.70;28.40
9448;DHT22;4762;48.128;11.376;2023-04-10T12:16:07;18.70;28.80
9448;DHT22;4762;48.128;11.376;2023-04-10T12:18:09;19.10;28.80
9448;DHT22;4762;48.128;11.376;2023-04-10T12:20:13;19.40;28.20
9448;DHT22;4762;48.128;11.376;2023-04-10T12:22:13;19.20;27.40
9448;DHT22;4762;48.128;11.376;2023-04-10T12:26:30;19.10;27.50
9448;DHT22;4762;48.128;11.376;2023-04-10T12:28:33;19.10;27.90
9448;DHT22;4762;48.128;11.376;2023-04-10T12:30:35;19.10;26.80
9448;DHT22;4762;48.128;11.376;2023-04-10T12:32:38;18.10;26.70
9448;DHT22;4762;48.128;11.376;2023-04-10T12:34:40;17.70;27.30
9448;DHT22;4762;48.128;11.376;2023-04-10T12:36:42;18.40;28.00
9448;DHT22;4762;48.128;11.376;2023-04-10T12:38:45;19.30;28.10
9448;DHT22;4762;48.128;11.376;2023-04-10T12:40:56;19.20;28.10
9448;DHT22;4762;48.128;11.376;2023-04-10T12:42:58;19.30;29.00
9448;DHT22;4762;48.128;11.376;2023-04-10T12:45:00;19.80;27.40
9448;DHT22;4762;48.128;11.376;2023-04-10T12:47:03;19.90;26.80
9448;DHT22;4762;48.128;11.376;2023-04-10T12:49:08;19.40;27.60
9448;DHT22;4762;48.128;11.376;2023-04-10T12:51:09;19.50;28.30
9448;DHT22;4762;48.128;11.376;2023-04-10T12:53:12;19.30;27.00
9448;DHT22;4762;48.128;11.376;2023-04-10T12:55:16;19.30;27.50
9448;DHT22;4762;48.128;11.376;2023-04-10T12:59:29;19.40;28.70
9448;DHT22;4762;48.128;11.376;2023-04-10T13:01:31;19.40;29.20
9448;DHT22;4762;48.128;11.376;2023-04-10T13:03:33;18.90;27.30
9448;DHT22;4762;48.128;11.376;2023-04-10T13:05:36;16.50;28.30
9448;DHT22;4762;48.128;11.376;2023-04-10T13:07:38;17.40;28.70
9448;DHT22;4762;48.128;11.376;2023-04-10T13:09:40;18.10;30.00
9448;DHT22;4762;48.128;11.376;2023-04-10T13:11:42;18.40;29.00
9448;DHT22;4762;48.128;11.376;2023-04-10T13:13:45;18.10;28.80
9448;DHT22;4762;48.128;11.376;2023-04-10T13:15:47;19.20;28.80
9448;DHT22;4762;48.128;11.376;2023-04-10T13:17:49;19.90;28.70
9448;DHT22;4762;48.128;11.376;2023-04-10T13:19:55;20.30;28.00
9448;DHT22;4762;48.128;11.376;2023-04-10T13:21:57;20.60;27.00
9448;DHT22;4762;48.128;11.376;2023-04-10T13:23:59;19.40;27.60
9448;DHT22;4762;48.128;11.376;2023-04-10T13:26:02;19.70;28.00
9448;DHT22;4762;48.128;11.376;2023-04-10T13:28:05;19.00;29.00
9448;DHT22;4762;48.128;11.376;2023-04-10T13:30:07;19.70;28.50
9448;DHT22;4762;48.128;11.376;2023-04-10T13:32:10;19.50;28.60
9448;DHT22;4762;48.128;11.376;2023-04-10T13:34:14;19.30;28.00
9448;DHT22;4762;48.128;11.376;2023-04-10T13:36:17;19.20;28.20
9448;DHT22;4762;48.128;11.376;2023-04-10T13:38:22;19.70;28.20
9448;DHT22;4762;48.128;11.376;2023-04-10T13:40:25;20.20;28.60